Time;durP1;ratioP1;P1;durP2;ratioP2;P2;SDS_P1;SDS_P2;PMS_P1;PMS_P2;Temp;Humidity;BMP_temperature;BMP_pressure;BME280_temperature;BME280_humidity;BME280_pressure;Samples;Min_cycle;Max_cycle;Signal;HPM_P1;HPM_P2
2023/05/23 00:00:15;;;;;;;27.85;24.33;;;;;;;14.51;100.00;101661.44;5041213;28;20151;-83
2023/05/23 00:02:41;;;;;;;26.63;23.73;;;;;;;14.41;100.00;101658.31;5053786;28;20025;-83
2023/05/23 00:05:07;;;;;;;27.38;23.67;;;;;;;14.30;100.00;101654.53;5036940;28;20028;-83
2023/05/23 00:07:32;;;;;;;29.05;24.25;;;;;;;14.17;100.00;101660.53;5054815;28;20020;-83
2023/05/23 00:09:58;;;;;;;28.05;23.83;;;;;;;14.17;100.00;101670.34;5051046;28;20520;-82
2023/05/23 00:12:23;;;;;;;26.70;23.83;;;;;;;14.19;100.00;101666.66;5057666;28;20532;-82
2023/05/23 00:14:49;;;;;;;29.42;24.48;;;;;;;14.27;100.00;101666.25;5025274;28;20194;-82
2023/05/23 00:17:16;;;;;;;29.00;25.17;;;;;;;14.40;100.00;101669.13;5041537;28;20115;-82
2023/05/23 00:19:44;;;;;;;29.02;23.80;;;;;;;14.42;100.00;101662.75;5031741;28;20035;-83
2023/05/23 00:22:10;;;;;;;29.17;24.40;;;;;;;14.33;100.00;101665.91;5042253;28;20029;-83
2023/05/23 00:24:36;;;;;;;29.90;23.42;;;;;;;14.44;100.00;101673.38;5043136;28;20339;-82
2023/05/23 00:27:01;;;;;;;27.50;23.50;;;;;;;14.38;100.00;101677.25;5045879;28;20473;-81
2023/05/23 00:29:26;;;;;;;28.70;23.67;;;;;;;14.40;100.00;101685.19;5050950;28;20083;-82
2023/05/23 00:31:52;;;;;;;30.35;24.25;;;;;;;14.34;100.00;101685.53;5052047;28;20025;-81
2023/05/23 00:34:17;;;;;;;26.88;23.63;;;;;;;14.30;100.00;101679.47;5049757;28;20039;-82
2023/05/23 00:36:46;;;;;;;25.80;23.10;;;;;;;14.28;100.00;101681.34;5033426;28;20102;-82
2023/05/23 00:39:18;;;;;;;26.00;23.20;;;;;;;14.20;100.00;101676.41;5047769;28;20119;-82
2023/05/23 00:41:50;;;;;;;27.02;22.45;;;;;;;14.14;100.00;101675.88;5049889;28;20021;-82
2023/05/23 00:44:15;;;;;;;27.13;22.50;;;;;;;14.13;100.00;101680.38;5026553;28;20538;-82
2023/05/23 00:46:44;;;;;;;27.63;22.58;;;;;;;14.09;100.00;101681.47;5025908;28;20116;-83
2023/05/23 00:49:11;;;;;;;24.85;21.35;;;;;;;14.07;100.00;101680.69;5046955;28;20023;-83
2023/05/23 00:51:36;;;;;;;25.20;21.98;;;;;;;14.10;100.00;101679.66;5048201;28;20029;-83
2023/05/23 00:54:04;;;;;;;25.17;20.90;;;;;;;14.15;100.00;101688.31;5044456;28;20025;-83
2023/05/23 00:56:30;;;;;;;22.38;19.95;;;;;;;14.06;100.00;101689.66;5044138;28;20017;-83
2023/05/23 00:58:59;;;;;;;22.45;20.20;;;;;;;14.10;100.00;101695.72;5028496;28;20040;-82
2023/05/23 01:01:24;;;;;;;22.52;20.08;;;;;;;14.04;100.00;101690.66;5046415;28;20025;-83
2023/05/23 01:03:50;;;;;;;21.52;19.20;;;;;;;14.09;100.00;101691.31;5044246;28;20024;-83
2023/05/23 01:06:16;;;;;;;20.50;18.50;;;;;;;14.07;100.00;101693.19;5026241;28;20246;-83
2023/05/23 01:08:42;;;;;;;22.52;18.60;;;;;;;14.02;100.00;101687.22;5045342;28;20021;-83
2023/05/23 01:11:18;;;;;;;19.95;17.77;;;;;;;14.01;100.00;101699.75;5046193;28;20040;-83
2023/05/23 01:13:58;;;;;;;20.20;18.10;;;;;;;14.06;100.00;101699.50;5043731;28;20020;-83
2023/05/23 01:16:36;;;;;;;20.73;17.23;;;;;;;14.01;100.00;101696.22;5026951;28;20021;-82
2023/05/23 01:19:25;;;;;;;19.40;17.23;;;;;;;14.06;100.00;101707.53;5047376;28;20033;-83
2023/05/23 01:21:54;;;;;;;19.23;17.13;;;;;;;14.07;100.00;101703.91;5045918;28;20074;-83
2023/05/23 01:24:35;;;;;;;18.30;16.40;;;;;;;14.11;100.00;101711.69;5044220;28;20025;-83
2023/05/23 01:27:25;;;;;;;18.85;16.75;;;;;;;14.09;100.00;101710.94;5043738;28;20040;-83
2023/05/23 01:29:55;;;;;;;19.17;16.92;;;;;;;14.10;100.00;101711.78;5054994;28;20032;-83
2023/05/23 01:32:23;;;;;;;19.67;16.27;;;;;;;14.01;100.00;101712.28;5047502;28;20032;-83
2023/05/23 01:34:52;;;;;;;18.95;15.88;;;;;;;14.05;100.00;101701.31;5035106;28;20465;-83
2023/05/23 01:37:18;;;;;;;20.67;17.08;;;;;;;14.11;100.00;101721.53;5024950;28;20039;-83
2023/05/23 01:39:44;;;;;;;20.55;16.02;;;;;;;14.13;99.64;101719.66;5053611;28;20050;-83
2023/05/23 01:42:10;;;;;;;18.55;16.00;;;;;;;14.09;99.54;101721.63;5045766;28;20025;-83
2023/05/23 01:44:37;;;;;;;18.27;14.90;;;;;;;14.09;99.62;101720.78;5043415;28;20115;-83
2023/05/23 01:47:04;;;;;;;22.27;16.13;;;;;;;14.01;99.03;101723.84;5043141;28;20103;-83
2023/05/23 01:49:31;;;;;;;18.80;15.77;;;;;;;13.94;99.29;101723.28;5054022;28;20724;-82
2023/05/23 01:51:59;;;;;;;19.98;15.93;;;;;;;13.90;99.76;101724.38;5044674;28;20048;-82
2023/05/23 01:54:25;;;;;;;22.55;16.08;;;;;;;13.97;99.33;101722.25;5044147;28;20033;-82
2023/05/23 01:56:51;;;;;;;18.90;14.85;;;;;;;13.99;99.36;101725.72;5042944;28;20661;-82
2023/05/23 01:59:16;;;;;;;18.77;16.08;;;;;;;13.93;99.31;101724.22;5052334;28;20032;-82
2023/05/23 02:01:41;;;;;;;23.13;16.05;;;;;;;13.92;99.34;101730.53;5025579;28;20732;-82
2023/05/23 02:04:07;;;;;;;21.77;16.10;;;;;;;13.94;99.31;101722.41;5043293;28;20028;-82
2023/05/23 02:06:33;;;;;;;19.42;15.65;;;;;;;13.82;99.64;101715.00;5042768;28;20020;-82
2023/05/23 02:08:58;;;;;;;21.27;15.85;;;;;;;13.80;99.66;101715.09;5048297;28;20028;-82
2023/05/23 02:11:23;;;;;;;22.58;15.75;;;;;;;13.80;99.83;101728.47;5025598;28;20021;-83
2023/05/23 02:13:49;;;;;;;24.98;16.95;;;;;;;13.82;99.94;101736.41;5043113;28;20036;-82
2023/05/23 02:16:14;;;;;;;26.77;17.60;;;;;;;13.73;100.00;101737.72;5042928;28;20028;-82
2023/05/23 02:18:40;;;;;;;21.10;15.88;;;;;;;13.74;100.00;101736.78;5046209;28;20021;-82
2023/05/23 02:21:05;;;;;;;24.90;17.25;;;;;;;13.76;100.00;101745.63;5043146;28;20032;-83
2023/05/23 02:23:30;;;;;;;27.38;18.33;;;;;;;13.71;100.00;101742.31;5024824;28;20099;-82
2023/05/23 02:25:56;;;;;;;26.25;18.35;;;;;;;13.59;100.00;101745.59;5043672;28;20754;-83
2023/05/23 02:28:21;;;;;;;28.27;17.88;;;;;;;13.62;100.00;101753.44;5044006;28;20107;-82
2023/05/23 02:30:46;;;;;;;29.00;18.08;;;;;;;13.60;100.00;101758.00;5048729;28;20021;-83
2023/05/23 02:33:12;;;;;;;29.67;19.00;;;;;;;13.54;100.00;101755.63;5052277;28;20462;-82
2023/05/23 02:35:38;;;;;;;26.80;18.35;;;;;;;13.52;100.00;101757.53;5024866;28;20608;-82
2023/05/23 02:38:04;;;;;;;28.48;18.00;;;;;;;13.58;100.00;101759.88;5043459;28;20073;-82
2023/05/23 02:40:29;;;;;;;29.88;19.52;;;;;;;13.51;100.00;101758.47;5025800;28;20029;-83
2023/05/23 02:42:56;;;;;;;26.48;18.92;;;;;;;13.55;100.00;101752.03;5035524;28;20076;-82
2023/05/23 02:45:22;;;;;;;25.02;17.95;;;;;;;13.52;100.00;101753.03;5045136;28;20028;-83
2023/05/23 02:47:48;;;;;;;25.33;18.38;;;;;;;13.50;100.00;101751.38;5042574;28;20369;-83
2023/05/23 02:50:13;;;;;;;22.73;16.58;;;;;;;13.49;100.00;101750.50;5055155;28;20557;-83
2023/05/23 02:52:38;;;;;;;22.15;16.17;;;;;;;13.51;100.00;101756.66;5024806;28;20028;-82
2023/05/23 02:55:04;;;;;;;22.75;16.77;;;;;;;13.40;100.00;101756.31;5042522;28;20608;-83
2023/05/23 02:57:30;;;;;;;20.88;14.98;;;;;;;13.43;100.00;101745.47;5025477;28;20039;-82
2023/05/23 02:59:55;;;;;;;21.67;14.57;;;;;;;13.51;100.00;101750.44;5035318;28;20382;-83
2023/05/23 03:02:21;;;;;;;20.85;14.82;;;;;;;13.53;100.00;101745.88;5042702;28;20584;-83
2023/05/23 03:04:47;;;;;;;22.30;14.65;;;;;;;13.42;100.00;101747.28;5024334;28;20098;-82
2023/05/23 03:07:13;;;;;;;23.65;14.70;;;;;;;13.50;100.00;101746.00;5042112;28;20243;-82
2023/05/23 03:09:39;;;;;;;17.88;13.80;;;;;;;13.56;100.00;101743.06;5051726;28;20044;-82
2023/05/23 03:12:05;;;;;;;19.88;14.50;;;;;;;13.60;100.00;101747.31;5023951;28;20052;-82
2023/05/23 03:14:30;;;;;;;19.00;14.02;;;;;;;13.60;100.00;101750.84;5041674;28;20021;-83
2023/05/23 03:16:56;;;;;;;22.23;13.65;;;;;;;13.56;100.00;101756.44;5046052;28;20086;-82
2023/05/23 03:19:21;;;;;;;20.45;14.45;;;;;;;13.53;100.00;101751.22;5058931;28;20044;-81
2023/05/23 03:21:49;;;;;;;23.90;16.15;;;;;;;13.44;100.00;101750.72;5044489;28;20021;-82
2023/05/23 03:24:14;;;;;;;19.83;15.45;;;;;;;13.42;100.00;101744.59;5041288;28;20033;-83
2023/05/23 03:26:39;;;;;;;22.63;15.52;;;;;;;13.47;100.00;101759.56;5041453;28;20373;-82
2023/05/23 03:29:05;;;;;;;19.35;13.73;;;;;;;13.42;100.00;101755.31;5031662;28;20047;-82
2023/05/23 03:31:30;;;;;;;16.10;12.30;;;;;;;13.34;100.00;101762.81;5041532;28;20029;-83
2023/05/23 03:33:56;;;;;;;15.82;11.73;;;;;;;13.38;100.00;101772.44;5042031;28;20741;-83
2023/05/23 03:36:24;;;;;;;14.38;10.80;;;;;;;13.30;100.00;101765.72;5023475;28;20033;-83
2023/05/23 03:38:50;;;;;;;11.10;9.02;;;;;;;13.23;100.00;101775.81;5048346;28;20045;-82
2023/05/23 03:41:15;;;;;;;13.95;9.77;;;;;;;13.31;100.00;101781.69;5041643;28;20091;-82
2023/05/23 03:43:41;;;;;;;10.65;8.60;;;;;;;13.28;100.00;101778.28;5041549;28;20028;-81
2023/05/23 03:46:06;;;;;;;9.68;7.82;;;;;;;13.23;100.00;101783.84;5041664;28;20500;-82
2023/05/23 03:48:31;;;;;;;9.40;7.80;;;;;;;13.27;100.00;101779.22;5046294;28;20094;-82
2023/05/23 03:50:57;;;;;;;9.07;7.45;;;;;;;13.24;100.00;101774.88;5041833;28;20071;-82
2023/05/23 03:53:22;;;;;;;9.38;7.53;;;;;;;13.31;100.00;101770.97;5041235;28;20021;-82
2023/05/23 03:55:47;;;;;;;9.18;7.68;;;;;;;13.31;100.00;101772.78;5041590;28;20017;-82
2023/05/23 03:58:13;;;;;;;10.40;7.53;;;;;;;13.32;100.00;101767.34;5048053;28;20047;-82
2023/05/23 04:00:38;;;;;;;10.25;7.65;;;;;;;13.30;100.00;101785.28;5053080;28;20032;-81
2023/05/23 04:03:03;;;;;;;9.05;7.47;;;;;;;13.45;100.00;101781.00;5027464;28;20032;-82
2023/05/23 04:05:30;;;;;;;8.65;7.68;;;;;;;13.38;100.00;101785.81;5028023;28;20020;-82
2023/05/23 04:07:55;;;;;;;9.10;7.15;;;;;;;13.43;100.00;101790.94;5031463;28;20058;-83
2023/05/23 04:10:21;;;;;;;8.60;7.10;;;;;;;13.47;100.00;101794.31;5054510;28;20021;-81
2023/05/23 04:12:46;;;;;;;10.88;8.15;;;;;;;13.39;100.00;101792.00;5058389;28;20778;-82
2023/05/23 04:15:12;;;;;;;9.45;7.00;;;;;;;13.45;100.00;101789.03;5045130;28;20036;-83
2023/05/23 04:17:37;;;;;;;8.93;7.78;;;;;;;13.47;100.00;101788.97;5047846;28;20068;-82
2023/05/23 04:20:08;;;;;;;8.50;7.47;;;;;;;13.53;100.00;101789.53;5030550;28;20024;-83
2023/05/23 04:22:33;;;;;;;9.32;8.20;;;;;;;13.52;100.00;101790.47;5044883;28;20063;-81
2023/05/23 04:24:59;;;;;;;10.07;8.35;;;;;;;13.50;100.00;101788.81;5027710;28;20012;-81
2023/05/23 04:27:24;;;;;;;11.32;7.70;;;;;;;13.47;100.00;101786.31;5030063;28;20020;-82
2023/05/23 04:29:51;;;;;;;10.48;8.20;;;;;;;13.50;100.00;101791.47;5056043;28;20120;-82
2023/05/23 04:32:18;;;;;;;12.20;8.38;;;;;;;13.51;100.00;101803.94;5048849;28;20052;-82
2023/05/23 04:34:43;;;;;;;12.18;8.45;;;;;;;13.47;100.00;101805.88;5056204;28;20051;-82
2023/05/23 04:37:09;;;;;;;10.68;8.30;;;;;;;13.45;100.00;101805.94;5047544;28;20469;-81
2023/05/23 04:39:35;;;;;;;12.40;8.73;;;;;;;13.53;100.00;101810.06;5056042;28;20448;-81
2023/05/23 04:42:01;;;;;;;12.45;8.88;;;;;;;13.52;100.00;101816.38;5027358;28;20107;-82
2023/05/23 04:44:29;;;;;;;12.23;8.73;;;;;;;13.50;100.00;101816.41;5045916;28;20116;-82
2023/05/23 04:46:55;;;;;;;11.65;8.60;;;;;;;13.47;100.00;101819.25;5045140;28;20484;-83
2023/05/23 04:49:21;;;;;;;10.55;8.10;;;;;;;13.58;100.00;101821.41;5035242;28;20064;-82
2023/05/23 04:51:47;;;;;;;13.68;8.43;;;;;;;13.59;100.00;101816.00;5044297;28;20055;-83
2023/05/23 04:54:12;;;;;;;11.50;8.38;;;;;;;13.60;99.77;101819.53;5026924;28;20434;-81
2023/05/23 04:56:38;;;;;;;11.98;9.10;;;;;;;13.58;100.00;101827.63;5026320;28;20112;-81
2023/05/23 04:59:03;;;;;;;14.65;8.82;;;;;;;13.58;100.00;101813.38;5050006;28;20028;-82
2023/05/23 05:01:30;;;;;;;12.43;9.73;;;;;;;13.61;100.00;101832.84;5045089;28;20013;-82
2023/05/23 05:03:56;;;;;;;15.48;11.02;;;;;;;13.53;99.89;101824.31;5044855;28;20028;-83
2023/05/23 05:06:22;;;;;;;17.92;11.45;;;;;;;13.54;99.89;101828.69;5025759;28;20025;-82
2023/05/23 05:08:47;;;;;;;17.38;11.60;;;;;;;13.54;100.00;101823.34;5057486;28;20488;-82
2023/05/23 05:11:12;;;;;;;17.80;11.05;;;;;;;13.60;100.00;101840.94;5031495;28;20145;-82
2023/05/23 05:13:38;;;;;;;15.88;11.27;;;;;;;13.58;100.00;101834.78;5051260;28;20025;-82
2023/05/23 05:16:03;;;;;;;15.75;11.73;;;;;;;13.64;100.00;101834.50;5044286;28;20025;-82
2023/05/23 05:18:29;;;;;;;20.70;11.85;;;;;;;13.61;99.92;101848.03;5035859;28;20558;-82
2023/05/23 05:20:55;;;;;;;18.42;12.23;;;;;;;13.58;100.00;101849.00;5043413;28;20112;-82
2023/05/23 05:23:24;;;;;;;18.58;12.55;;;;;;;13.64;100.00;101845.19;5044087;28;20310;-83
2023/05/23 05:25:50;;;;;;;17.58;12.45;;;;;;;13.63;99.94;101840.81;5054852;28;20028;-83
2023/05/23 05:28:15;;;;;;;20.50;12.27;;;;;;;13.66;99.94;101848.66;5056923;28;20033;-82
2023/05/23 05:30:41;;;;;;;22.52;13.35;;;;;;;13.66;100.00;101851.34;5031001;28;20021;-82
2023/05/23 05:33:06;;;;;;;25.90;14.68;;;;;;;13.60;99.79;101855.19;5026190;28;20037;-82
2023/05/23 05:35:32;;;;;;;24.15;13.52;;;;;;;13.53;99.54;101853.72;5043056;28;20075;-82
2023/05/23 05:37:58;;;;;;;21.80;12.80;;;;;;;13.42;99.90;101859.59;5054137;28;20033;-82
2023/05/23 05:40:24;;;;;;;25.98;13.70;;;;;;;13.38;100.00;101866.03;5046803;28;20021;-82
2023/05/23 05:42:49;;;;;;;22.20;13.77;;;;;;;13.29;100.00;101870.91;5043689;28;20032;-82
2023/05/23 05:45:15;;;;;;;25.00;14.32;;;;;;;13.21;100.00;101868.56;5043677;28;20036;-82
2023/05/23 05:47:40;;;;;;;28.92;15.43;;;;;;;13.27;100.00;101862.97;5051247;28;20036;-84
2023/05/23 05:50:08;;;;;;;23.17;15.13;;;;;;;13.31;100.00;101869.91;5027438;28;20017;-83
2023/05/23 05:52:37;;;;;;;21.45;13.82;;;;;;;13.25;100.00;101871.97;5054273;28;20032;-82
2023/05/23 05:55:05;;;;;;;25.45;14.70;;;;;;;13.20;100.00;101872.16;5027081;28;20033;-83
2023/05/23 05:57:32;;;;;;;28.67;15.52;;;;;;;13.13;100.00;101881.41;5050811;28;20032;-83
2023/05/23 05:59:57;;;;;;;28.52;15.13;;;;;;;13.10;100.00;101878.88;5027082;28;20017;-83
2023/05/23 06:02:22;;;;;;;27.05;15.25;;;;;;;13.04;100.00;101881.81;5043284;28;20027;-83
2023/05/23 06:04:48;;;;;;;27.67;15.00;;;;;;;13.05;100.00;101886.25;5042649;28;20066;-83
2023/05/23 06:07:14;;;;;;;25.23;14.45;;;;;;;13.08;100.00;101892.28;5048259;28;20028;-83
2023/05/23 06:09:39;;;;;;;26.95;14.35;;;;;;;13.01;100.00;101895.31;5043603;28;20028;-82
2023/05/23 06:12:05;;;;;;;24.80;13.70;;;;;;;12.93;100.00;101880.50;5042620;28;20048;-82
2023/05/23 06:14:31;;;;;;;26.70;12.95;;;;;;;13.01;100.00;101885.50;5043347;28;20037;-83
2023/05/23 06:16:56;;;;;;;23.38;12.52;;;;;;;12.98;99.33;101893.66;5045805;28;20074;-83
2023/05/23 06:19:22;;;;;;;22.38;11.90;;;;;;;12.95;99.42;101904.47;5051667;28;20104;-82
2023/05/23 06:21:47;;;;;;;24.70;11.85;;;;;;;12.88;99.69;101900.34;5042758;28;20577;-82
2023/05/23 06:24:13;;;;;;;22.70;11.48;;;;;;;12.79;100.00;101898.94;5044784;28;20450;-81
2023/05/23 06:26:38;;;;;;;21.35;11.18;;;;;;;12.72;99.64;101908.16;5047583;28;20032;-82
2023/05/23 06:29:03;;;;;;;19.67;9.95;;;;;;;12.73;99.83;101912.53;5046656;28;20040;-82
2023/05/23 06:31:28;;;;;;;15.77;9.77;;;;;;;12.60;100.00;101912.19;5043331;28;20036;-82
2023/05/23 06:33:54;;;;;;;18.10;10.52;;;;;;;12.62;100.00;101918.38;5037939;28;20029;-82
2023/05/23 06:36:19;;;;;;;18.73;9.13;;;;;;;12.60;100.00;101919.34;5024415;28;20425;-83
2023/05/23 06:38:46;;;;;;;16.67;8.40;;;;;;;12.55;99.65;101919.53;5027415;28;20029;-83
2023/05/23 06:41:11;;;;;;;16.65;8.52;;;;;;;12.64;99.63;101923.63;5042553;28;20400;-83
2023/05/23 06:43:37;;;;;;;20.60;8.73;;;;;;;12.74;99.30;101930.31;5042484;28;20017;-83
2023/05/23 06:46:02;;;;;;;12.20;7.43;;;;;;;12.69;98.60;101926.97;5042424;28;20043;-83
2023/05/23 06:48:27;;;;;;;14.48;8.00;;;;;;;12.72;98.94;101932.19;5057042;28;20021;-83
2023/05/23 06:50:53;;;;;;;13.90;7.93;;;;;;;12.75;98.42;101936.50;5042589;28;20017;-83
2023/05/23 06:53:18;;;;;;;13.35;7.70;;;;;;;12.72;97.65;101937.53;5042447;28;20021;-82
2023/05/23 06:55:43;;;;;;;11.70;7.28;;;;;;;12.68;97.40;101939.47;5042418;28;20017;-83
2023/05/23 06:58:09;;;;;;;13.10;7.50;;;;;;;12.68;97.18;101950.16;5055841;28;20021;-83
2023/05/23 07:00:34;;;;;;;12.23;6.78;;;;;;;12.66;96.90;101956.47;5042432;28;20044;-83
2023/05/23 07:03:02;;;;;;;11.43;6.72;;;;;;;12.62;97.17;101968.22;5024322;28;20705;-83
2023/05/23 07:05:28;;;;;;;13.70;7.78;;;;;;;12.58;96.75;101961.25;5024898;28;20024;-83
2023/05/23 07:07:53;;;;;;;12.52;7.40;;;;;;;12.49;96.78;101975.88;5052722;28;20031;-84
2023/05/23 07:10:19;;;;;;;14.48;7.07;;;;;;;12.42;96.21;101969.91;5024139;28;20385;-84
2023/05/23 07:12:45;;;;;;;14.60;7.10;;;;;;;12.37;96.73;101974.59;5055258;28;20040;-84
2023/05/23 07:15:11;;;;;;;12.48;6.57;;;;;;;12.38;96.70;101965.63;5042464;28;20025;-82
2023/05/23 07:17:36;;;;;;;12.65;7.38;;;;;;;12.39;96.67;101967.38;5043203;28;20021;-83
2023/05/23 07:20:03;;;;;;;15.90;7.10;;;;;;;12.33;96.53;101967.63;5042418;28;20020;-83
2023/05/23 07:22:29;;;;;;;13.05;7.38;;;;;;;12.39;95.53;101978.06;5025672;28;20028;-83
2023/05/23 07:24:54;;;;;;;14.98;7.88;;;;;;;12.32;95.36;101981.03;5045449;28;20024;-83
2023/05/23 07:27:19;;;;;;;16.33;7.65;;;;;;;12.32;95.70;101975.69;5050598;28;20125;-83
2023/05/23 07:29:45;;;;;;;13.98;7.25;;;;;;;12.45;93.85;101975.13;5041884;28;20113;-83
2023/05/23 07:32:10;;;;;;;13.52;7.38;;;;;;;12.65;93.26;101968.97;5041267;28;20155;-82
2023/05/23 07:34:36;;;;;;;13.63;7.47;;;;;;;12.92;91.90;101972.28;5041249;28;20037;-83
2023/05/23 07:37:01;;;;;;;14.73;7.38;;;;;;;13.08;89.95;101974.28;5049550;28;20620;-83
2023/05/23 07:39:26;;;;;;;13.05;6.20;;;;;;;13.30;87.56;101967.13;5042205;28;20068;-83
2023/05/23 07:41:52;;;;;;;12.48;6.38;;;;;;;13.43;86.41;101979.00;5041966;28;20025;-83
2023/05/23 07:44:18;;;;;;;15.90;7.00;;;;;;;13.54;84.94;101982.97;5042015;28;20040;-83
2023/05/23 07:46:43;;;;;;;12.57;6.65;;;;;;;13.73;81.40;101978.53;5044012;28;20101;-83
2023/05/23 07:49:08;;;;;;;11.68;6.22;;;;;;;14.06;79.65;101978.78;5041662;28;20094;-83
2023/05/23 07:51:34;;;;;;;12.43;6.40;;;;;;;14.40;77.42;101983.38;5041588;28;20021;-82
2023/05/23 07:54:01;;;;;;;10.82;6.10;;;;;;;14.37;75.67;101978.16;5024247;28;20453;-83
2023/05/23 07:56:26;;;;;;;15.38;6.68;;;;;;;14.82;76.10;101987.56;5048872;28;20089;-83
2023/05/23 07:58:52;;;;;;;12.13;5.65;;;;;;;15.39;72.16;101987.34;5035408;28;20032;-84
2023/05/23 08:01:17;;;;;;;11.90;6.32;;;;;;;15.42;68.92;101990.72;5042029;28;20112;-83
2023/05/23 08:03:43;;;;;;;11.75;6.53;;;;;;;15.38;68.97;101989.16;5041335;28;20367;-84
2023/05/23 08:06:08;;;;;;;11.45;6.25;;;;;;;15.35;67.67;102001.88;5045151;28;20027;-84
2023/05/23 08:08:35;;;;;;;9.43;5.55;;;;;;;15.20;68.08;101995.47;5051072;28;20029;-83
2023/05/23 08:11:01;;;;;;;9.77;5.88;;;;;;;15.40;67.52;102000.66;5041578;28;20501;-83
2023/05/23 08:13:27;;;;;;;10.93;6.60;;;;;;;15.60;67.02;102009.47;5041417;28;20068;-83
2023/05/23 08:15:52;;;;;;;9.80;5.78;;;;;;;15.86;65.11;102026.91;5042445;28;20028;-83
2023/05/23 08:18:18;;;;;;;9.07;6.00;;;;;;;15.81;64.55;102013.72;5045849;28;20079;-83
2023/05/23 08:20:43;;;;;;;10.10;5.53;;;;;;;15.62;65.33;102015.63;5041511;28;20025;-83
2023/05/23 08:23:09;;;;;;;12.98;6.22;;;;;;;15.38;66.28;102002.56;5042107;28;20028;-83
2023/05/23 08:25:35;;;;;;;11.50;6.30;;;;;;;14.94;67.10;102011.09;5041981;28;20225;-83
2023/05/23 08:28:01;;;;;;;10.70;5.80;;;;;;;14.66;68.98;102011.59;5028355;28;20025;-83
2023/05/23 08:30:27;;;;;;;10.00;6.28;;;;;;;14.65;70.46;102015.22;5023299;28;20052;-83
2023/05/23 08:32:54;;;;;;;11.63;6.30;;;;;;;14.60;70.61;102019.06;5041498;28;20067;-83
2023/05/23 08:35:20;;;;;;;10.20;5.90;;;;;;;14.75;70.68;102017.44;5041204;28;20082;-83
2023/05/23 08:37:46;;;;;;;9.57;5.85;;;;;;;14.59;70.98;102014.63;5055143;28;20033;-82
2023/05/23 08:40:17;;;;;;;10.57;5.70;;;;;;;14.56;71.73;102030.88;5042971;28;20021;-84
2023/05/23 08:42:42;;;;;;;11.55;5.93;;;;;;;14.45;71.87;102018.81;5042306;28;20082;-83
2023/05/23 08:45:08;;;;;;;11.05;6.05;;;;;;;14.36;71.94;102019.28;5041302;28;20029;-83
2023/05/23 08:47:39;;;;;;;10.52;5.80;;;;;;;14.50;72.38;102028.50;5054131;28;20059;-82
2023/05/23 08:50:07;;;;;;;11.35;5.70;;;;;;;14.67;71.70;102028.53;5048954;28;20021;-82
2023/05/23 08:52:34;;;;;;;10.73;5.82;;;;;;;14.50;71.01;102031.16;5055117;28;20398;-83
2023/05/23 08:55:01;;;;;;;7.85;4.93;;;;;;;14.65;72.25;102033.97;5027859;28;20116;-84
2023/05/23 08:57:29;;;;;;;9.73;5.10;;;;;;;14.83;71.77;102025.97;5033710;28;20025;-83
2023/05/23 08:59:55;;;;;;;10.52;5.40;;;;;;;14.72;71.77;102026.50;5044610;28;20017;-83
2023/05/23 09:02:21;;;;;;;9.60;5.05;;;;;;;14.63;71.72;102034.97;5047562;28;20318;-83
2023/05/23 09:04:46;;;;;;;8.73;4.95;;;;;;;14.80;72.44;102043.09;5028391;28;20029;-84
2023/05/23 09:07:15;;;;;;;8.25;5.18;;;;;;;14.72;72.64;102036.38;5061282;28;20081;-84
2023/05/23 09:09:41;;;;;;;12.55;5.35;;;;;;;14.90;72.28;102048.84;5026554;28;20040;-83
2023/05/23 09:12:06;;;;;;;8.95;4.65;;;;;;;14.99;72.01;102042.16;5043871;28;20552;-82
2023/05/23 09:14:32;;;;;;;7.75;4.95;;;;;;;14.90;71.11;102039.00;5026040;28;20025;-83
2023/05/23 09:17:04;;;;;;;8.60;4.65;;;;;;;14.70;72.10;102047.16;5056553;28;20592;-83
2023/05/23 09:19:29;;;;;;;8.15;4.88;;;;;;;14.78;72.75;102041.41;5044648;28;20029;-83
2023/05/23 09:21:55;;;;;;;9.82;4.60;;;;;;;14.99;73.07;102043.00;5057139;28;20021;-83
2023/05/23 09:24:21;;;;;;;9.52;4.60;;;;;;;15.25;70.20;102046.19;5044117;28;20052;-83
2023/05/23 09:26:47;;;;;;;12.82;5.03;;;;;;;15.73;69.01;102040.09;5052692;28;20429;-81
2023/05/23 09:29:12;;;;;;;7.60;4.35;;;;;;;15.94;67.47;102047.00;5046811;28;20116;-82
2023/05/23 09:31:38;;;;;;;10.88;4.50;;;;;;;16.11;66.57;102051.44;5043818;28;20441;-83
2023/05/23 09:34:03;;;;;;;9.23;3.95;;;;;;;16.25;64.86;102037.25;5043310;28;20621;-83
2023/05/23 09:36:29;;;;;;;11.02;4.10;;;;;;;16.33;65.89;102052.94;5054505;28;20043;-83
2023/05/23 09:38:55;;;;;;;7.43;3.95;;;;;;;16.27;65.30;102040.72;5046145;28;20111;-83
2023/05/23 09:41:20;;;;;;;8.90;4.07;;;;;;;15.89;66.76;102051.75;5043283;28;20349;-82
2023/05/23 09:43:53;;;;;;;7.32;3.90;;;;;;;15.44;68.64;102047.84;5043366;28;20036;-82
2023/05/23 09:46:20;;;;;;;10.52;4.25;;;;;;;15.22;70.14;102051.72;5056482;28;20067;-82
2023/05/23 09:48:52;;;;;;;9.55;4.55;;;;;;;14.99;70.11;102063.59;5044130;28;20037;-82
2023/05/23 09:51:22;;;;;;;8.88;4.07;;;;;;;15.04;70.29;102057.06;5038815;28;20111;-83
2023/05/23 09:53:49;;;;;;;10.05;3.80;;;;;;;15.09;68.51;102049.66;5043231;28;20020;-83
2023/05/23 09:56:18;;;;;;;9.70;3.88;;;;;;;15.45;68.44;102057.63;5054801;28;20086;-82
2023/05/23 09:58:47;;;;;;;10.27;3.78;;;;;;;15.98;64.16;102054.91;5043104;28;20382;-82
2023/05/23 10:01:13;;;;;;;10.38;3.97;;;;;;;16.09;62.80;102065.91;5025540;28;20142;-81
2023/05/23 10:03:38;;;;;;;7.82;3.65;;;;;;;15.52;63.88;102060.00;5043472;28;20472;-83
2023/05/23 10:06:09;;;;;;;10.68;4.05;;;;;;;15.43;65.58;102061.34;5053360;28;20071;-83
2023/05/23 10:08:44;;;;;;;13.18;3.55;;;;;;;15.32;66.29;102056.53;5035271;28;20465;-81
2023/05/23 10:11:13;;;;;;;10.80;3.53;;;;;;;15.62;65.44;102054.06;5026668;28;20402;-83
2023/05/23 10:13:42;;;;;;;12.10;4.13;;;;;;;15.72;65.15;102062.53;5051668;28;20057;-83
2023/05/23 10:16:31;;;;;;;13.48;3.80;;;;;;;15.66;64.13;102061.03;5039223;28;20045;-83
2023/05/23 10:19:02;;;;;;;11.18;4.03;;;;;;;15.47;64.20;102064.72;5048971;28;20044;-81
2023/05/23 10:21:43;;;;;;;10.77;3.72;;;;;;;15.91;62.87;102054.34;5049048;28;20083;-83
2023/05/23 10:24:10;;;;;;;14.23;4.00;;;;;;;16.19;60.81;102059.09;5043264;28;20033;-84
2023/05/23 10:26:36;;;;;;;13.57;3.50;;;;;;;16.16;58.49;102060.13;5056205;28;20037;-83
2023/05/23 10:29:02;;;;;;;10.75;3.83;;;;;;;16.32;58.32;102062.84;5025015;28;20032;-82
2023/05/23 10:31:28;;;;;;;11.02;3.42;;;;;;;16.68;56.40;102061.72;5025705;28;20025;-81
2023/05/23 10:34:18;;;;;;;7.10;2.90;;;;;;;18.19;54.24;102054.44;5024331;28;20049;-82
2023/05/23 10:36:54;;;;;;;9.45;3.40;;;;;;;20.93;45.50;102051.59;5048204;28;20505;-83
2023/05/23 10:39:57;;;;;;;6.72;2.65;;;;;;;22.84;44.63;102047.25;5049700;28;20020;-84
2023/05/23 10:42:51;;;;;;;10.57;3.58;;;;;;;21.99;41.89;102062.41;5024830;28;20112;-83
2023/05/23 10:45:18;;;;;;;10.23;2.88;;;;;;;22.40;38.04;102058.19;5048624;28;20086;-82
2023/05/23 10:47:45;;;;;;;8.25;3.30;;;;;;;23.36;36.08;102061.84;5059931;28;20024;-82
2023/05/23 10:50:15;;;;;;;11.32;3.33;;;;;;;24.08;34.30;102055.59;5057964;28;20017;-83
2023/05/23 10:52:42;;;;;;;8.32;2.95;;;;;;;24.95;32.96;102056.81;5042304;28;20064;-83
2023/05/23 10:55:16;;;;;;;9.15;3.38;;;;;;;25.91;33.75;102050.41;5050145;28;20181;-82
2023/05/23 10:57:42;;;;;;;13.77;3.20;;;;;;;26.22;31.96;102042.84;5049127;28;20047;-83
2023/05/23 11:00:15;;;;;;;8.93;3.08;;;;;;;25.01;33.81;102037.19;5042210;28;20036;-82
2023/05/23 11:03:03;;;;;;;8.07;3.22;;;;;;;24.42;35.37;102058.03;5041855;28;20028;-83
2023/05/23 11:05:30;;;;;;;9.80;3.60;;;;;;;24.76;33.36;102050.38;5035691;28;20028;-82
2023/05/23 11:08:06;;;;;;;11.70;3.35;;;;;;;25.31;33.11;102049.81;5044488;28;20028;-83
2023/05/23 11:10:32;;;;;;;10.63;3.45;;;;;;;25.77;31.90;102067.28;5036034;28;20032;-83